WetterOnline ( https://www.wetteronline.de )

Wetter aktuell Bonn

Aktuelles Wetter: Königswinter-Heiderhof (147m)

6-stündlich | Neueste Meldungen
Ortszeit Temperatur Wetter
Fr, 01.12. 19:00 -0.8° C bedeckt
Fr, 01.12. 13:00 -0.4° C bedeckt
Fr, 01.12. 7:00 -1.5° C bedeckt
Fr, 01.12. 1:00 -1.6° C Nebel
Do, 30.11. 19:00 1.5° C bewölkt
Do, 30.11. 13:00 2.5° C bedeckt
Do, 30.11. 7:00 0.4° C leichter Schneefall
Do, 30.11. 1:00 -0.8° C leicht bewölkt
Ortszeit Temperatur Wetter
Sa, 02.12. 0:30 -2.4° C bedeckt
Sa, 02.12. 0:20 -2.4° C bedeckt
Sa, 02.12. 0:10 -2.3° C bedeckt
Sa, 02.12. 0:00 -2.2° C bedeckt
Fr, 01.12. 23:50 -2.2° C bedeckt
Fr, 01.12. 23:40 -2.1° C bedeckt
Fr, 01.12. 23:30 -2.1° C bedeckt
Fr, 01.12. 23:00 -2.0° C bedeckt
Fr, 01.12. 22:30 -1.9° C bedeckt
Fr, 01.12. 22:00 -1.8° C bedeckt
Fr, 01.12. 21:30 -1.5° C bedeckt
Ortszeit Relative Feuchte Sichtweite
Fr, 01.12. 19:00 74% 45 km
Fr, 01.12. 13:00 81% 45 km
Fr, 01.12. 7:00 94% 15 km
Fr, 01.12. 1:00 96% 0.3 km
Do, 30.11. 19:00 93% 14 km
Do, 30.11. 13:00 92% 19 km
Do, 30.11. 7:00 96% 4.5 km
Do, 30.11. 1:00 94% 23 km
Ortszeit Relative Feuchte Sichtweite
Sa, 02.12. 0:30 75% 29 km
Sa, 02.12. 0:20 75% -
Sa, 02.12. 0:10 76% -
Sa, 02.12. 0:00 75% 27 km
Fr, 01.12. 23:50 75% -
Fr, 01.12. 23:40 75% -
Fr, 01.12. 23:30 76% 28 km
Fr, 01.12. 23:00 73% 30 km
Fr, 01.12. 22:30 77% 27 km
Fr, 01.12. 22:00 75% 30 km
Fr, 01.12. 21:30 74% 29 km
Ortszeit Niederschlagsmenge Niederschlagsart
Fr, 01.12. 19:00 0.1 l/m2 in 12 Std. -
Fr, 01.12. 13:00 0.1 l/m2 in 6 Std. Sprühregen
Fr, 01.12. 7:00 0.0 l/m2 in 12 Std. -
Fr, 01.12. 1:00 0.0 l/m2 in 6 Std. -
Do, 30.11. 19:00 0.2 l/m2 in 12 Std. Regen
Do, 30.11. 13:00 0.2 l/m2 in 6 Std. Schnee, Regen
Do, 30.11. 7:00 0.1 l/m2 in 12 Std. Schnee, Regen
Do, 30.11. 1:00 0.0 l/m2 in 6 Std. -
Ortszeit Niederschlagsmenge Niederschlagsart
Sa, 02.12. 0:30 0.0 l/m2 in 30 Min -
Sa, 02.12. 0:20 keine Meldung -
Sa, 02.12. 0:10 keine Meldung -
Sa, 02.12. 0:00 0.0 l/m2 in 1 Std. -
Fr, 01.12. 23:50 keine Meldung -
Fr, 01.12. 23:40 keine Meldung -
Fr, 01.12. 23:30 0.0 l/m2 in 30 Min -
Fr, 01.12. 23:00 0.0 l/m2 in 1 Std. -
Fr, 01.12. 22:30 0.0 l/m2 in 30 Min -
Fr, 01.12. 22:00 0.0 l/m2 in 1 Std. -
Fr, 01.12. 21:30 0.0 l/m2 in 30 Min -
Ortszeit Stärke Spitze Richtung
km/h Bft. km/h Grad Sektor
Fr, 01.12. 19:00 13 3 22 20° N
Fr, 01.12. 13:00 11 2 18 10° N
Fr, 01.12. 7:00 7 2 11 340° N
Fr, 01.12. 1:00 6 1 7 330° NW
Do, 30.11. 19:00 2 1 11 330° NW
Do, 30.11. 13:00 4 1 14 110° O
Do, 30.11. 7:00 7 2 11 100° O
Do, 30.11. 1:00 4 1 22 200° S
Ortszeit Stärke Spitze Richtung
km/h Bft. km/h Grad Sektor
Sa, 02.12. 0:30 14 3 18 50° NO
Sa, 02.12. 0:20 14 3 - 50° NO
Sa, 02.12. 0:10 13 3 - 60° NO
Sa, 02.12. 0:00 11 2 18 40° NO
Fr, 01.12. 23:50 11 2 - 40° NO
Fr, 01.12. 23:40 13 3 - 60° NO
Fr, 01.12. 23:30 9 2 19 70° O
Fr, 01.12. 23:00 14 3 22 60° NO
Fr, 01.12. 22:30 11 2 18 70° O
Fr, 01.12. 22:00 17 3 22 40° NO
Fr, 01.12. 21:30 17 3 22 20° N
Ortszeit Untergrenze Bedeckung Gattung
total tief tief mittel hoch
Fr, 01.12. 19:00 690 m 8/8 8/8 - - -
Fr, 01.12. 13:00 600 m 8/8 8/8 - - -
Fr, 01.12. 7:00 390 m 8/8 8/8 - - -
Fr, 01.12. 1:00 <30 m 5/8 0/8 - - -
Do, 30.11. 19:00 240 m 8/8 7/8 - - -
Do, 30.11. 13:00 180 m 8/8 8/8 - - -
Do, 30.11. 7:00 750 m 4/8 4/8 - - -
Do, 30.11. 1:00 2100 m 2/8 2/8 - - -
Ortszeit Bedeckungsgrad in Achtel und Wolkenuntergrenze
Sa, 02.12. 0:30 8(540m)
Sa, 02.12. 0:20 8(540m)
Sa, 02.12. 0:10 8
Sa, 02.12. 0:00 8(570m)
Fr, 01.12. 23:50 8(570m)
Fr, 01.12. 23:40 8
Fr, 01.12. 23:30 8(570m)
Fr, 01.12. 23:00 8(570m)
Fr, 01.12. 22:30 8(570m)
Fr, 01.12. 22:00 8(600m)
Fr, 01.12. 21:30 8(600m)
Ortszeit Luftdruck NN (hPa) Tendenz (hPa in 3 Std.)
Fr, 01.12. 19:00 1008 + 0,8
Fr, 01.12. 13:00 1007 + 0,1
Fr, 01.12. 7:00 1005 + 1,0
Fr, 01.12. 1:00 1004 + 0,9
Do, 30.11. 19:00 1002 + 0,5
Do, 30.11. 13:00 1001 - 0,6
Do, 30.11. 7:00 1002 - 0,5
Do, 30.11. 1:00 1004 - 0,4
Ortszeit Luftdruck NN (hPa) Tendenz (hPa in 3 Std.)
Sa, 02.12. 0:30 1009 + 0,8
Sa, 02.12. 0:20 1009 keine Meldung
Sa, 02.12. 0:10 1009 keine Meldung
Sa, 02.12. 0:00 1009 + 0,6
Fr, 01.12. 23:50 1009 keine Meldung
Fr, 01.12. 23:40 1009 keine Meldung
Fr, 01.12. 23:30 1009 + 0,6
Fr, 01.12. 23:00 1009 + 0,8
Fr, 01.12. 22:30 1009 + 1,0
Fr, 01.12. 22:00 1009 + 1,0
Fr, 01.12. 21:30 1009 + 0,7
Ortszeit Schneehöhe (cm)
Fr, 01.12. 19:00 0
Fr, 01.12. 13:00 0
Fr, 01.12. 7:00 0
Fr, 01.12. 1:00 0
Do, 30.11. 19:00 0
Do, 30.11. 13:00 0
Do, 30.11. 7:00 0
Do, 30.11. 1:00 0
Ortszeit Schneehöhe (cm)
Sa, 02.12. 0:30 0
Sa, 02.12. 0:20 0
Sa, 02.12. 0:10 -
Sa, 02.12. 0:00 0
Fr, 01.12. 23:50 0
Fr, 01.12. 23:40 -
Fr, 01.12. 23:30 0
Fr, 01.12. 23:00 0
Fr, 01.12. 22:30 0
Fr, 01.12. 22:00 0
Fr, 01.12. 21:30 0
Link zu dieser Seite / Seite empfehlen

Das Wetter in ...